Terminal Aerodrome Forecast
Issued by NWS

Home | Current Version | Previous Version | Text Only | Print | Product List | Glossary On
Versions: 1 2 3 4 5 6 7 8 9 10 11 12 13 14 15 16 17 18 19 20 21 22
000
FTUS41 KPBZ 121435 AAA
TAFFKL
TAF AMD
KFKL 121435Z 1215/1312 29012G20KT 2SM -SN OVC010
      TEMPO 1215/1217 1SM -SN BKN004
     FM121900 29015G28KT 5SM -SN OVC010
     FM130100 30015G30KT 6SM -SN OVC025
     FM130700 28012G28KT 3SM -SN OVC008=

USA.gov is the U.S. government's official web portal to all federal, state and local government web resources and services.